sensor_id;sensor_type;location;lat;lon;timestamp;temperature;humidity
15357;DHT22;7778;48.792;9.260;2022-08-19T00:02:37;21.60;99.90
15357;DHT22;7778;48.792;9.260;2022-08-19T00:05:22;21.60;99.90
15357;DHT22;7778;48.792;9.260;2022-08-19T00:08:08;21.70;99.90
15357;DHT22;7778;48.792;9.260;2022-08-19T00:10:54;21.70;99.90
15357;DHT22;7778;48.792;9.260;2022-08-19T00:13:40;21.70;99.90
15357;DHT22;7778;48.792;9.260;2022-08-19T00:16:27;21.70;99.90
15357;DHT22;7778;48.792;9.260;2022-08-19T00:19:13;21.60;99.90
15357;DHT22;7778;48.792;9.260;2022-08-19T00:21:59;21.50;99.90
15357;DHT22;7778;48.792;9.260;2022-08-19T00:24:46;21.40;99.90
15357;DHT22;7778;48.792;9.260;2022-08-19T00:27:32;21.50;99.90
15357;DHT22;7778;48.792;9.260;2022-08-19T00:30:18;21.60;99.90
15357;DHT22;7778;48.792;9.260;2022-08-19T00:33:05;21.60;99.90
15357;DHT22;7778;48.792;9.260;2022-08-19T00:35:52;21.50;99.90
15357;DHT22;7778;48.792;9.260;2022-08-19T00:38:39;21.40;99.90
15357;DHT22;7778;48.792;9.260;2022-08-19T00:41:28;21.50;99.90
15357;DHT22;7778;48.792;9.260;2022-08-19T00:44:16;21.40;99.90
15357;DHT22;7778;48.792;9.260;2022-08-19T00:47:04;21.50;99.90
15357;DHT22;7778;48.792;9.260;2022-08-19T00:49:55;21.60;99.90
15357;DHT22;7778;48.792;9.260;2022-08-19T00:52:46;21.60;99.90
15357;DHT22;7778;48.792;9.260;2022-08-19T00:55:34;21.50;99.90
15357;DHT22;7778;48.792;9.260;2022-08-19T00:58:23;21.50;99.90
15357;DHT22;7778;48.792;9.260;2022-08-19T01:01:12;21.40;99.90
15357;DHT22;7778;48.792;9.260;2022-08-19T01:03:58;21.40;99.90
15357;DHT22;7778;48.792;9.260;2022-08-19T01:06:45;21.50;99.90
15357;DHT22;7778;48.792;9.260;2022-08-19T01:09:31;21.40;99.90
15357;DHT22;7778;48.792;9.260;2022-08-19T01:12:17;21.40;99.90
15357;DHT22;7778;48.792;9.260;2022-08-19T01:15:05;21.40;99.90
15357;DHT22;7778;48.792;9.260;2022-08-19T01:17:53;21.40;99.90
15357;DHT22;7778;48.792;9.260;2022-08-19T01:20:40;21.40;99.90
15357;DHT22;7778;48.792;9.260;2022-08-19T01:23:28;21.50;99.90
15357;DHT22;7778;48.792;9.260;2022-08-19T01:26:27;21.40;99.90
15357;DHT22;7778;48.792;9.260;2022-08-19T01:29:13;21.30;99.90
15357;DHT22;7778;48.792;9.260;2022-08-19T01:32:01;21.20;99.90
15357;DHT22;7778;48.792;9.260;2022-08-19T01:34:46;21.30;99.90
15357;DHT22;7778;48.792;9.260;2022-08-19T01:37:42;21.20;99.90
15357;DHT22;7778;48.792;9.260;2022-08-19T01:40:32;21.20;99.90
15357;DHT22;7778;48.792;9.260;2022-08-19T01:43:20;21.20;99.90
15357;DHT22;7778;48.792;9.260;2022-08-19T01:46:05;21.10;99.90
15357;DHT22;7778;48.792;9.260;2022-08-19T01:48:51;21.10;99.90
15357;DHT22;7778;48.792;9.260;2022-08-19T01:51:37;21.10;99.90
15357;DHT22;7778;48.792;9.260;2022-08-19T01:54:23;21.10;99.90
15357;DHT22;7778;48.792;9.260;2022-08-19T01:57:12;21.10;99.90
15357;DHT22;7778;48.792;9.260;2022-08-19T01:59:59;20.90;99.90
15357;DHT22;7778;48.792;9.260;2022-08-19T02:02:44;21.00;99.90
15357;DHT22;7778;48.792;9.260;2022-08-19T02:05:30;21.00;99.90
15357;DHT22;7778;48.792;9.260;2022-08-19T02:08:15;21.00;99.90
15357;DHT22;7778;48.792;9.260;2022-08-19T02:11:02;21.10;99.90
15357;DHT22;7778;48.792;9.260;2022-08-19T02:13:49;21.10;99.90
15357;DHT22;7778;48.792;9.260;2022-08-19T02:16:35;21.00;99.90
15357;DHT22;7778;48.792;9.260;2022-08-19T02:19:22;20.90;99.90
15357;DHT22;7778;48.792;9.260;2022-08-19T02:22:07;20.90;99.90
15357;DHT22;7778;48.792;9.260;2022-08-19T02:24:54;20.90;99.90
15357;DHT22;7778;48.792;9.260;2022-08-19T02:27:41;20.90;99.90
15357;DHT22;7778;48.792;9.260;2022-08-19T02:30:28;20.80;99.90
15357;DHT22;7778;48.792;9.260;2022-08-19T02:33:14;20.80;99.90
15357;DHT22;7778;48.792;9.260;2022-08-19T02:36:03;20.70;99.90
15357;DHT22;7778;48.792;9.260;2022-08-19T02:38:49;20.70;99.90
15357;DHT22;7778;48.792;9.260;2022-08-19T02:41:35;20.80;99.90
15357;DHT22;7778;48.792;9.260;2022-08-19T02:44:21;20.80;99.90
15357;DHT22;7778;48.792;9.260;2022-08-19T02:47:08;20.80;99.90
15357;DHT22;7778;48.792;9.260;2022-08-19T02:49:54;20.90;99.90
15357;DHT22;7778;48.792;9.260;2022-08-19T02:52:40;20.80;99.90
15357;DHT22;7778;48.792;9.260;2022-08-19T02:55:26;20.90;99.90
15357;DHT22;7778;48.792;9.260;2022-08-19T02:58:12;20.70;99.90
15357;DHT22;7778;48.792;9.260;2022-08-19T03:00:58;20.70;99.90
15357;DHT22;7778;48.792;9.260;2022-08-19T03:03:45;20.70;99.90
15357;DHT22;7778;48.792;9.260;2022-08-19T03:06:31;20.60;99.90
15357;DHT22;7778;48.792;9.260;2022-08-19T03:09:19;20.60;99.90
15357;DHT22;7778;48.792;9.260;2022-08-19T03:12:05;20.60;99.90
15357;DHT22;7778;48.792;9.260;2022-08-19T03:14:51;20.60;99.90
15357;DHT22;7778;48.792;9.260;2022-08-19T03:17:37;20.40;99.90
15357;DHT22;7778;48.792;9.260;2022-08-19T03:20:24;20.40;99.90
15357;DHT22;7778;48.792;9.260;2022-08-19T03:23:10;20.40;99.90
15357;DHT22;7778;48.792;9.260;2022-08-19T03:25:56;20.40;99.90
15357;DHT22;7778;48.792;9.260;2022-08-19T03:28:43;20.40;99.90
15357;DHT22;7778;48.792;9.260;2022-08-19T03:31:30;20.40;99.90
15357;DHT22;7778;48.792;9.260;2022-08-19T03:34:18;20.40;99.90
15357;DHT22;7778;48.792;9.260;2022-08-19T03:37:08;20.40;99.90
15357;DHT22;7778;48.792;9.260;2022-08-19T03:39:56;20.30;99.90
15357;DHT22;7778;48.792;9.260;2022-08-19T03:42:41;20.30;99.90
15357;DHT22;7778;48.792;9.260;2022-08-19T03:45:27;20.40;99.90
15357;DHT22;7778;48.792;9.260;2022-08-19T03:48:12;20.40;99.90
15357;DHT22;7778;48.792;9.260;2022-08-19T03:50:59;20.40;99.90
15357;DHT22;7778;48.792;9.260;2022-08-19T03:53:47;20.40;99.90
15357;DHT22;7778;48.792;9.260;2022-08-19T03:56:34;20.30;99.90
15357;DHT22;7778;48.792;9.260;2022-08-19T03:59:23;20.30;99.90
15357;DHT22;7778;48.792;9.260;2022-08-19T04:02:11;20.30;99.90
15357;DHT22;7778;48.792;9.260;2022-08-19T04:04:57;20.20;99.90
15357;DHT22;7778;48.792;9.260;2022-08-19T04:07:43;20.10;99.90
15357;DHT22;7778;48.792;9.260;2022-08-19T04:10:30;20.10;99.90
15357;DHT22;7778;48.792;9.260;2022-08-19T04:13:17;20.10;99.90
15357;DHT22;7778;48.792;9.260;2022-08-19T04:16:03;20.10;99.90
15357;DHT22;7778;48.792;9.260;2022-08-19T04:18:49;20.10;99.90
15357;DHT22;7778;48.792;9.260;2022-08-19T04:21:35;20.20;99.90
15357;DHT22;7778;48.792;9.260;2022-08-19T04:24:22;20.10;99.90
15357;DHT22;7778;48.792;9.260;2022-08-19T04:27:09;20.10;99.90
15357;DHT22;7778;48.792;9.260;2022-08-19T04:29:54;20.10;99.90
15357;DHT22;7778;48.792;9.260;2022-08-19T04:32:40;20.10;99.90
15357;DHT22;7778;48.792;9.260;2022-08-19T04:35:27;20.00;99.90
15357;DHT22;7778;48.792;9.260;2022-08-19T04:38:15;20.10;99.90
15357;DHT22;7778;48.792;9.260;2022-08-19T04:41:03;20.00;99.90
15357;DHT22;7778;48.792;9.260;2022-08-19T04:44:08;20.00;99.90
15357;DHT22;7778;48.792;9.260;2022-08-19T04:46:54;20.00;99.90
15357;DHT22;7778;48.792;9.260;2022-08-19T04:49:40;20.10;99.90
15357;DHT22;7778;48.792;9.260;2022-08-19T04:52:25;20.10;99.90
15357;DHT22;7778;48.792;9.260;2022-08-19T04:55:12;20.10;99.90
15357;DHT22;7778;48.792;9.260;2022-08-19T04:57:58;20.20;99.90
15357;DHT22;7778;48.792;9.260;2022-08-19T05:00:47;20.10;99.90
15357;DHT22;7778;48.792;9.260;2022-08-19T05:03:33;20.00;99.90
15357;DHT22;7778;48.792;9.260;2022-08-19T05:06:20;20.10;99.90
15357;DHT22;7778;48.792;9.260;2022-08-19T05:09:06;20.10;99.90
15357;DHT22;7778;48.792;9.260;2022-08-19T05:11:52;20.20;99.90
15357;DHT22;7778;48.792;9.260;2022-08-19T05:14:38;20.20;99.90
15357;DHT22;7778;48.792;9.260;2022-08-19T05:17:25;20.30;99.90
15357;DHT22;7778;48.792;9.260;2022-08-19T05:20:12;20.30;99.90
15357;DHT22;7778;48.792;9.260;2022-08-19T05:23:15;20.30;99.90
15357;DHT22;7778;48.792;9.260;2022-08-19T05:26:01;20.40;99.90
15357;DHT22;7778;48.792;9.260;2022-08-19T05:28:46;20.40;99.90
15357;DHT22;7778;48.792;9.260;2022-08-19T05:31:32;20.40;99.90
15357;DHT22;7778;48.792;9.260;2022-08-19T05:34:21;20.50;99.90
15357;DHT22;7778;48.792;9.260;2022-08-19T05:37:08;20.50;99.90
15357;DHT22;7778;48.792;9.260;2022-08-19T05:39:55;20.50;99.90
15357;DHT22;7778;48.792;9.260;2022-08-19T05:42:41;20.40;99.90
15357;DHT22;7778;48.792;9.260;2022-08-19T05:45:27;20.40;99.90
15357;DHT22;7778;48.792;9.260;2022-08-19T05:48:13;20.50;99.90
15357;DHT22;7778;48.792;9.260;2022-08-19T05:51:04;20.40;99.90
15357;DHT22;7778;48.792;9.260;2022-08-19T05:53:52;20.50;99.90
15357;DHT22;7778;48.792;9.260;2022-08-19T05:56:38;20.50;99.90
15357;DHT22;7778;48.792;9.260;2022-08-19T05:59:24;20.50;99.90
15357;DHT22;7778;48.792;9.260;2022-08-19T06:02:10;20.40;99.90
15357;DHT22;7778;48.792;9.260;2022-08-19T06:04:55;20.40;99.90
15357;DHT22;7778;48.792;9.260;2022-08-19T06:07:42;20.40;99.90
15357;DHT22;7778;48.792;9.260;2022-08-19T06:10:28;20.40;99.90
15357;DHT22;7778;48.792;9.260;2022-08-19T06:13:14;20.40;99.90
15357;DHT22;7778;48.792;9.260;2022-08-19T06:16:00;20.40;99.90
15357;DHT22;7778;48.792;9.260;2022-08-19T06:18:45;20.40;99.90
15357;DHT22;7778;48.792;9.260;2022-08-19T06:21:31;20.50;99.90
15357;DHT22;7778;48.792;9.260;2022-08-19T06:24:19;20.40;99.90
15357;DHT22;7778;48.792;9.260;2022-08-19T06:27:08;20.40;99.90
15357;DHT22;7778;48.792;9.260;2022-08-19T06:29:54;20.20;99.90
15357;DHT22;7778;48.792;9.260;2022-08-19T06:32:39;20.20;99.90
15357;DHT22;7778;48.792;9.260;2022-08-19T06:35:25;20.10;99.90
15357;DHT22;7778;48.792;9.260;2022-08-19T06:38:13;20.10;99.90
15357;DHT22;7778;48.792;9.260;2022-08-19T06:41:02;20.10;99.90
15357;DHT22;7778;48.792;9.260;2022-08-19T06:43:48;20.10;99.90
15357;DHT22;7778;48.792;9.260;2022-08-19T06:46:34;20.10;99.90
15357;DHT22;7778;48.792;9.260;2022-08-19T06:49:20;20.10;99.90
15357;DHT22;7778;48.792;9.260;2022-08-19T06:52:07;20.10;99.90
15357;DHT22;7778;48.792;9.260;2022-08-19T06:54:55;20.20;99.90
15357;DHT22;7778;48.792;9.260;2022-08-19T06:57:43;20.20;99.90
15357;DHT22;7778;48.792;9.260;2022-08-19T07:00:29;20.10;99.90
15357;DHT22;7778;48.792;9.260;2022-08-19T07:03:14;20.10;99.90
15357;DHT22;7778;48.792;9.260;2022-08-19T07:06:03;20.00;99.90
15357;DHT22;7778;48.792;9.260;2022-08-19T07:08:49;20.20;99.90
15357;DHT22;7778;48.792;9.260;2022-08-19T07:11:35;20.30;99.90
15357;DHT22;7778;48.792;9.260;2022-08-19T07:14:24;20.30;99.90
15357;DHT22;7778;48.792;9.260;2022-08-19T07:17:12;20.40;99.90
15357;DHT22;7778;48.792;9.260;2022-08-19T07:19:58;20.50;99.90
15357;DHT22;7778;48.792;9.260;2022-08-19T07:22:44;20.50;99.90
15357;DHT22;7778;48.792;9.260;2022-08-19T07:25:30;20.30;99.90
15357;DHT22;7778;48.792;9.260;2022-08-19T07:28:15;20.10;99.90
15357;DHT22;7778;48.792;9.260;2022-08-19T07:31:05;20.10;99.90
15357;DHT22;7778;48.792;9.260;2022-08-19T07:33:52;20.20;99.90
15357;DHT22;7778;48.792;9.260;2022-08-19T07:36:41;20.10;99.90
15357;DHT22;7778;48.792;9.260;2022-08-19T07:39:29;20.20;99.90
15357;DHT22;7778;48.792;9.260;2022-08-19T07:42:16;20.20;99.90
15357;DHT22;7778;48.792;9.260;2022-08-19T07:45:03;20.30;99.90
15357;DHT22;7778;48.792;9.260;2022-08-19T07:47:51;20.20;99.90
15357;DHT22;7778;48.792;9.260;2022-08-19T07:50:37;20.20;99.90
15357;DHT22;7778;48.792;9.260;2022-08-19T07:53:23;20.10;99.90
15357;DHT22;7778;48.792;9.260;2022-08-19T07:56:10;20.20;99.90
15357;DHT22;7778;48.792;9.260;2022-08-19T07:58:56;20.10;99.90
15357;DHT22;7778;48.792;9.260;2022-08-19T08:01:42;20.10;99.90
15357;DHT22;7778;48.792;9.260;2022-08-19T08:04:30;20.20;99.90
15357;DHT22;7778;48.792;9.260;2022-08-19T08:07:34;19.90;99.90
15357;DHT22;7778;48.792;9.260;2022-08-19T08:10:38;20.00;99.90
15357;DHT22;7778;48.792;9.260;2022-08-19T08:13:24;20.00;99.90
15357;DHT22;7778;48.792;9.260;2022-08-19T08:16:10;20.10;99.90
15357;DHT22;7778;48.792;9.260;2022-08-19T08:18:56;20.20;99.90
15357;DHT22;7778;48.792;9.260;2022-08-19T08:21:43;20.10;99.90
15357;DHT22;7778;48.792;9.260;2022-08-19T08:24:30;20.10;99.90
15357;DHT22;7778;48.792;9.260;2022-08-19T08:27:16;20.10;99.90
15357;DHT22;7778;48.792;9.260;2022-08-19T08:30:03;20.10;99.90
15357;DHT22;7778;48.792;9.260;2022-08-19T08:32:51;20.10;99.90
15357;DHT22;7778;48.792;9.260;2022-08-19T08:35:37;20.00;99.90
15357;DHT22;7778;48.792;9.260;2022-08-19T08:38:25;20.20;99.90
15357;DHT22;7778;48.792;9.260;2022-08-19T08:41:18;20.20;99.90
15357;DHT22;7778;48.792;9.260;2022-08-19T08:44:14;20.40;99.90
15357;DHT22;7778;48.792;9.260;2022-08-19T08:47:09;20.60;99.90
15357;DHT22;7778;48.792;9.260;2022-08-19T08:50:00;20.80;99.90
15357;DHT22;7778;48.792;9.260;2022-08-19T08:52:51;20.90;99.90
15357;DHT22;7778;48.792;9.260;2022-08-19T08:55:40;21.00;99.90
15357;DHT22;7778;48.792;9.260;2022-08-19T08:58:39;21.20;99.90
15357;DHT22;7778;48.792;9.260;2022-08-19T09:01:31;21.30;99.90
15357;DHT22;7778;48.792;9.260;2022-08-19T09:04:17;21.30;99.90
15357;DHT22;7778;48.792;9.260;2022-08-19T09:07:18;21.30;99.90
15357;DHT22;7778;48.792;9.260;2022-08-19T09:10:13;21.20;99.90
15357;DHT22;7778;48.792;9.260;2022-08-19T09:13:10;21.00;99.90
15357;DHT22;7778;48.792;9.260;2022-08-19T09:16:04;20.90;99.90
15357;DHT22;7778;48.792;9.260;2022-08-19T09:18:56;20.80;99.90
15357;DHT22;7778;48.792;9.260;2022-08-19T09:21:43;20.90;99.90
15357;DHT22;7778;48.792;9.260;2022-08-19T09:24:29;20.80;99.90
15357;DHT22;7778;48.792;9.260;2022-08-19T09:27:15;20.70;99.90
15357;DHT22;7778;48.792;9.260;2022-08-19T09:30:04;20.70;99.90
15357;DHT22;7778;48.792;9.260;2022-08-19T09:32:50;20.80;99.90
15357;DHT22;7778;48.792;9.260;2022-08-19T09:35:37;20.90;99.90
15357;DHT22;7778;48.792;9.260;2022-08-19T09:38:23;20.90;99.90
15357;DHT22;7778;48.792;9.260;2022-08-19T09:41:11;20.90;99.90
15357;DHT22;7778;48.792;9.260;2022-08-19T09:43:59;21.00;99.90
15357;DHT22;7778;48.792;9.260;2022-08-19T09:46:46;21.00;99.90
15357;DHT22;7778;48.792;9.260;2022-08-19T09:49:32;21.10;99.90
15357;DHT22;7778;48.792;9.260;2022-08-19T09:52:18;21.10;99.90
15357;DHT22;7778;48.792;9.260;2022-08-19T09:55:05;21.20;99.90
15357;DHT22;7778;48.792;9.260;2022-08-19T09:57:53;21.20;99.90
15357;DHT22;7778;48.792;9.260;2022-08-19T10:00:39;21.20;99.90
15357;DHT22;7778;48.792;9.260;2022-08-19T10:03:27;21.10;99.90
15357;DHT22;7778;48.792;9.260;2022-08-19T10:06:13;21.10;99.90
15357;DHT22;7778;48.792;9.260;2022-08-19T10:09:00;21.10;99.90
15357;DHT22;7778;48.792;9.260;2022-08-19T10:11:47;21.00;99.90
15357;DHT22;7778;48.792;9.260;2022-08-19T10:14:34;21.10;99.90
15357;DHT22;7778;48.792;9.260;2022-08-19T10:17:20;21.00;99.90
15357;DHT22;7778;48.792;9.260;2022-08-19T10:20:08;20.90;99.90
15357;DHT22;7778;48.792;9.260;2022-08-19T10:22:54;20.90;99.90
15357;DHT22;7778;48.792;9.260;2022-08-19T10:25:40;21.00;99.90
15357;DHT22;7778;48.792;9.260;2022-08-19T10:28:26;20.90;99.90
15357;DHT22;7778;48.792;9.260;2022-08-19T10:31:18;20.90;99.90
15357;DHT22;7778;48.792;9.260;2022-08-19T10:34:05;21.00;99.90
15357;DHT22;7778;48.792;9.260;2022-08-19T10:36:52;21.00;99.90
15357;DHT22;7778;48.792;9.260;2022-08-19T10:39:37;21.10;99.90
15357;DHT22;7778;48.792;9.260;2022-08-19T10:42:23;21.10;99.90
15357;DHT22;7778;48.792;9.260;2022-08-19T10:45:10;21.20;99.90
15357;DHT22;7778;48.792;9.260;2022-08-19T10:47:55;21.30;99.90
15357;DHT22;7778;48.792;9.260;2022-08-19T10:50:41;21.30;99.90
15357;DHT22;7778;48.792;9.260;2022-08-19T10:53:46;21.30;99.90
15357;DHT22;7778;48.792;9.260;2022-08-19T10:56:33;21.30;99.90
15357;DHT22;7778;48.792;9.260;2022-08-19T10:59:36;21.20;99.90
15357;DHT22;7778;48.792;9.260;2022-08-19T11:02:23;21.10;99.90
15357;DHT22;7778;48.792;9.260;2022-08-19T11:05:10;21.10;99.90
15357;DHT22;7778;48.792;9.260;2022-08-19T11:07:55;21.10;99.90
15357;DHT22;7778;48.792;9.260;2022-08-19T11:10:42;21.10;99.90
15357;DHT22;7778;48.792;9.260;2022-08-19T11:13:30;21.10;99.90
15357;DHT22;7778;48.792;9.260;2022-08-19T11:16:19;21.20;99.90
15357;DHT22;7778;48.792;9.260;2022-08-19T11:19:08;21.20;99.90
15357;DHT22;7778;48.792;9.260;2022-08-19T11:21:54;21.30;99.90
15357;DHT22;7778;48.792;9.260;2022-08-19T11:24:40;21.40;99.90
15357;DHT22;7778;48.792;9.260;2022-08-19T11:27:27;21.50;99.90
15357;DHT22;7778;48.792;9.260;2022-08-19T11:30:13;21.60;99.90
15357;DHT22;7778;48.792;9.260;2022-08-19T11:33:00;21.70;99.90
15357;DHT22;7778;48.792;9.260;2022-08-19T11:35:46;21.80;99.90
15357;DHT22;7778;48.792;9.260;2022-08-19T11:41:22;21.60;99.90
15357;DHT22;7778;48.792;9.260;2022-08-19T11:44:10;21.30;99.90
15357;DHT22;7778;48.792;9.260;2022-08-19T11:46:58;21.20;99.90
15357;DHT22;7778;48.792;9.260;2022-08-19T11:49:45;20.90;99.90
15357;DHT22;7778;48.792;9.260;2022-08-19T11:52:31;20.70;99.90
15357;DHT22;7778;48.792;9.260;2022-08-19T11:55:17;20.70;99.90
15357;DHT22;7778;48.792;9.260;2022-08-19T11:58:03;20.80;99.90
15357;DHT22;7778;48.792;9.260;2022-08-19T12:00:51;20.80;99.90
15357;DHT22;7778;48.792;9.260;2022-08-19T12:03:38;20.80;99.90
15357;DHT22;7778;48.792;9.260;2022-08-19T12:06:26;21.00;99.90
15357;DHT22;7778;48.792;9.260;2022-08-19T12:09:13;21.00;99.90
15357;DHT22;7778;48.792;9.260;2022-08-19T12:57:47;20.70;99.90
15357;DHT22;7778;48.792;9.260;2022-08-19T13:00:34;20.60;99.90
15357;DHT22;7778;48.792;9.260;2022-08-19T13:03:20;20.60;99.90
15357;DHT22;7778;48.792;9.260;2022-08-19T13:08:48;20.60;99.90
15357;DHT22;7778;48.792;9.260;2022-08-19T13:11:34;20.70;99.90
15357;DHT22;7778;48.792;9.260;2022-08-19T13:14:21;20.80;99.90
15357;DHT22;7778;48.792;9.260;2022-08-19T13:19:50;20.70;99.90
15357;DHT22;7778;48.792;9.260;2022-08-19T13:22:36;20.70;99.90
15357;DHT22;7778;48.792;9.260;2022-08-19T13:25:22;20.60;99.90
15357;DHT22;7778;48.792;9.260;2022-08-19T13:28:09;20.30;99.90
15357;DHT22;7778;48.792;9.260;2022-08-19T13:30:56;20.10;99.90
15357;DHT22;7778;48.792;9.260;2022-08-19T13:33:59;19.90;99.90
15357;DHT22;7778;48.792;9.260;2022-08-19T13:36:46;20.00;99.90
15357;DHT22;7778;48.792;9.260;2022-08-19T13:39:32;20.00;99.90
15357;DHT22;7778;48.792;9.260;2022-08-19T13:42:27;20.10;99.90
15357;DHT22;7778;48.792;9.260;2022-08-19T13:45:19;20.00;99.90
15357;DHT22;7778;48.792;9.260;2022-08-19T13:48:08;20.10;99.90
15357;DHT22;7778;48.792;9.260;2022-08-19T13:50:54;20.00;99.90
15357;DHT22;7778;48.792;9.260;2022-08-19T13:53:40;20.00;99.90
15357;DHT22;7778;48.792;9.260;2022-08-19T13:56:26;19.80;99.90
15357;DHT22;7778;48.792;9.260;2022-08-19T13:59:13;19.90;99.90
15357;DHT22;7778;48.792;9.260;2022-08-19T14:01:59;19.90;99.90
15357;DHT22;7778;48.792;9.260;2022-08-19T14:04:47;19.90;99.90
15357;DHT22;7778;48.792;9.260;2022-08-19T14:07:33;19.70;99.90
15357;DHT22;7778;48.792;9.260;2022-08-19T14:10:19;19.80;99.90
15357;DHT22;7778;48.792;9.260;2022-08-19T14:13:07;19.50;99.90
15357;DHT22;7778;48.792;9.260;2022-08-19T14:15:53;19.30;99.90
15357;DHT22;7778;48.792;9.260;2022-08-19T14:18:38;19.30;99.90
15357;DHT22;7778;48.792;9.260;2022-08-19T14:21:26;19.30;99.90
15357;DHT22;7778;48.792;9.260;2022-08-19T14:24:12;19.50;99.90
15357;DHT22;7778;48.792;9.260;2022-08-19T14:26:58;19.50;99.90
15357;DHT22;7778;48.792;9.260;2022-08-19T14:29:44;19.50;99.90
15357;DHT22;7778;48.792;9.260;2022-08-19T14:32:30;19.40;99.90
15357;DHT22;7778;48.792;9.260;2022-08-19T14:35:16;19.40;99.90
15357;DHT22;7778;48.792;9.260;2022-08-19T14:38:04;19.50;99.90
15357;DHT22;7778;48.792;9.260;2022-08-19T14:40:51;19.40;99.90
15357;DHT22;7778;48.792;9.260;2022-08-19T14:43:37;19.60;99.90
15357;DHT22;7778;48.792;9.260;2022-08-19T14:46:25;19.70;99.90
15357;DHT22;7778;48.792;9.260;2022-08-19T14:49:12;19.90;99.90
15357;DHT22;7778;48.792;9.260;2022-08-19T14:51:57;19.90;99.90
15357;DHT22;7778;48.792;9.260;2022-08-19T14:54:44;19.90;99.90
15357;DHT22;7778;48.792;9.260;2022-08-19T14:57:30;19.80;99.90
15357;DHT22;7778;48.792;9.260;2022-08-19T15:00:16;19.80;99.90
15357;DHT22;7778;48.792;9.260;2022-08-19T15:03:02;19.60;99.90
15357;DHT22;7778;48.792;9.260;2022-08-19T15:05:48;19.60;99.90
15357;DHT22;7778;48.792;9.260;2022-08-19T15:08:35;19.80;99.90
15357;DHT22;7778;48.792;9.260;2022-08-19T15:11:25;19.90;99.90
15357;DHT22;7778;48.792;9.260;2022-08-19T15:14:12;20.10;99.90
15357;DHT22;7778;48.792;9.260;2022-08-19T15:16:59;20.30;99.90
15357;DHT22;7778;48.792;9.260;2022-08-19T15:19:45;20.40;99.90
15357;DHT22;7778;48.792;9.260;2022-08-19T15:22:31;20.30;99.90
15357;DHT22;7778;48.792;9.260;2022-08-19T15:25:18;20.30;99.90
15357;DHT22;7778;48.792;9.260;2022-08-19T15:28:05;20.30;99.90
15357;DHT22;7778;48.792;9.260;2022-08-19T15:30:52;20.20;99.90
15357;DHT22;7778;48.792;9.260;2022-08-19T15:33:38;20.10;99.90
15357;DHT22;7778;48.792;9.260;2022-08-19T15:36:28;20.00;99.90
15357;DHT22;7778;48.792;9.260;2022-08-19T15:39:14;20.00;99.90
15357;DHT22;7778;48.792;9.260;2022-08-19T15:42:00;20.20;99.90
15357;DHT22;7778;48.792;9.260;2022-08-19T15:44:48;20.10;99.90
15357;DHT22;7778;48.792;9.260;2022-08-19T15:47:35;20.10;99.90
15357;DHT22;7778;48.792;9.260;2022-08-19T15:50:22;20.10;99.90
15357;DHT22;7778;48.792;9.260;2022-08-19T15:53:08;20.20;99.90
15357;DHT22;7778;48.792;9.260;2022-08-19T15:55:55;20.40;99.90
15357;DHT22;7778;48.792;9.260;2022-08-19T15:58:40;20.40;99.90
15357;DHT22;7778;48.792;9.260;2022-08-19T16:01:45;20.50;99.90
15357;DHT22;7778;48.792;9.260;2022-08-19T16:04:50;20.40;99.90
15357;DHT22;7778;48.792;9.260;2022-08-19T16:07:55;20.50;99.90
15357;DHT22;7778;48.792;9.260;2022-08-19T16:10:41;20.50;99.90
15357;DHT22;7778;48.792;9.260;2022-08-19T16:13:26;20.50;99.90
15357;DHT22;7778;48.792;9.260;2022-08-19T16:16:12;20.50;99.90
15357;DHT22;7778;48.792;9.260;2022-08-19T16:19:02;20.60;99.90
15357;DHT22;7778;48.792;9.260;2022-08-19T16:21:52;20.60;99.90
15357;DHT22;7778;48.792;9.260;2022-08-19T16:24:39;20.60;99.90
15357;DHT22;7778;48.792;9.260;2022-08-19T16:27:25;20.60;99.90
15357;DHT22;7778;48.792;9.260;2022-08-19T16:30:11;20.70;99.90
15357;DHT22;7778;48.792;9.260;2022-08-19T16:32:57;20.90;99.90
15357;DHT22;7778;48.792;9.260;2022-08-19T16:35:44;21.00;99.90
15357;DHT22;7778;48.792;9.260;2022-08-19T16:38:29;20.90;99.90
15357;DHT22;7778;48.792;9.260;2022-08-19T16:41:15;21.00;99.90
15357;DHT22;7778;48.792;9.260;2022-08-19T16:44:01;21.10;99.90
15357;DHT22;7778;48.792;9.260;2022-08-19T16:46:48;21.20;99.90
15357;DHT22;7778;48.792;9.260;2022-08-19T16:49:34;21.10;99.90
15357;DHT22;7778;48.792;9.260;2022-08-19T16:52:22;21.10;99.90
15357;DHT22;7778;48.792;9.260;2022-08-19T16:55:09;21.10;99.90
15357;DHT22;7778;48.792;9.260;2022-08-19T16:57:55;21.20;99.90
15357;DHT22;7778;48.792;9.260;2022-08-19T17:00:41;21.10;99.90
15357;DHT22;7778;48.792;9.260;2022-08-19T17:03:26;20.90;99.90
15357;DHT22;7778;48.792;9.260;2022-08-19T17:06:15;20.90;99.90
15357;DHT22;7778;48.792;9.260;2022-08-19T17:09:04;20.90;99.90
15357;DHT22;7778;48.792;9.260;2022-08-19T17:11:50;20.80;99.90
15357;DHT22;7778;48.792;9.260;2022-08-19T17:14:36;20.80;99.90
15357;DHT22;7778;48.792;9.260;2022-08-19T17:17:21;20.80;99.90
15357;DHT22;7778;48.792;9.260;2022-08-19T17:20:08;20.90;99.90
15357;DHT22;7778;48.792;9.260;2022-08-19T17:22:54;20.90;99.90
15357;DHT22;7778;48.792;9.260;2022-08-19T17:25:42;20.80;99.90
15357;DHT22;7778;48.792;9.260;2022-08-19T17:28:28;20.80;99.90
15357;DHT22;7778;48.792;9.260;2022-08-19T17:31:15;20.80;99.90
15357;DHT22;7778;48.792;9.260;2022-08-19T17:34:04;20.70;99.90
15357;DHT22;7778;48.792;9.260;2022-08-19T17:36:50;20.80;99.90
15357;DHT22;7778;48.792;9.260;2022-08-19T17:39:36;20.80;99.90
15357;DHT22;7778;48.792;9.260;2022-08-19T17:42:24;20.70;99.90
15357;DHT22;7778;48.792;9.260;2022-08-19T17:45:11;20.70;99.90
15357;DHT22;7778;48.792;9.260;2022-08-19T17:47:57;20.60;99.90
15357;DHT22;7778;48.792;9.260;2022-08-19T17:50:44;20.50;99.90
15357;DHT22;7778;48.792;9.260;2022-08-19T17:53:29;20.50;99.90
15357;DHT22;7778;48.792;9.260;2022-08-19T17:56:17;20.60;99.90
15357;DHT22;7778;48.792;9.260;2022-08-19T17:59:06;20.60;99.90
15357;DHT22;7778;48.792;9.260;2022-08-19T18:01:52;20.50;99.90
15357;DHT22;7778;48.792;9.260;2022-08-19T18:04:38;20.50;99.90
15357;DHT22;7778;48.792;9.260;2022-08-19T18:07:26;20.50;99.90
15357;DHT22;7778;48.792;9.260;2022-08-19T18:10:13;20.50;99.90
15357;DHT22;7778;48.792;9.260;2022-08-19T18:12:59;20.50;99.90
15357;DHT22;7778;48.792;9.260;2022-08-19T18:15:46;20.40;99.90
15357;DHT22;7778;48.792;9.260;2022-08-19T18:18:33;20.40;99.90
15357;DHT22;7778;48.792;9.260;2022-08-19T18:21:18;20.20;99.90
15357;DHT22;7778;48.792;9.260;2022-08-19T18:24:05;20.10;99.90
15357;DHT22;7778;48.792;9.260;2022-08-19T18:26:50;20.10;99.90
15357;DHT22;7778;48.792;9.260;2022-08-19T18:29:36;20.00;99.90
15357;DHT22;7778;48.792;9.260;2022-08-19T18:32:25;20.00;99.90
15357;DHT22;7778;48.792;9.260;2022-08-19T18:35:16;20.00;99.90
15357;DHT22;7778;48.792;9.260;2022-08-19T18:38:03;20.00;99.90
15357;DHT22;7778;48.792;9.260;2022-08-19T18:41:09;20.10;99.90
15357;DHT22;7778;48.792;9.260;2022-08-19T18:44:13;19.80;99.90
15357;DHT22;7778;48.792;9.260;2022-08-19T18:47:17;19.70;99.90
15357;DHT22;7778;48.792;9.260;2022-08-19T18:50:21;19.70;99.90